createdAt,value
2019-02-22T00:00:51.680Z,0
2019-02-22T00:01:51.900Z,0
2019-02-22T00:02:52.994Z,0
2019-02-22T00:03:52.139Z,0
2019-02-22T00:04:51.389Z,0
2019-02-22T00:05:51.911Z,0
2019-02-22T00:06:51.887Z,0
2019-02-22T00:07:51.628Z,0
2019-02-22T00:08:51.875Z,0
2019-02-22T00:09:56.905Z,0
2019-02-22T00:10:51.620Z,0
2019-02-22T00:11:51.862Z,0
2019-02-22T00:12:51.841Z,0
2019-02-22T00:13:52.101Z,0
2019-02-22T00:14:51.834Z,0
2019-02-22T00:15:52.069Z,0
2019-02-22T00:16:51.587Z,0
2019-02-22T00:17:51.848Z,0
2019-02-22T00:18:52.083Z,0
2019-02-22T00:19:53.534Z,0
2019-02-22T00:20:51.806Z,0
2019-02-22T00:21:51.813Z,0
2019-02-22T00:22:51.825Z,0
2019-02-22T00:23:51.823Z,0
2019-02-22T00:24:51.535Z,0
2019-02-22T00:25:51.528Z,0
2019-02-22T00:26:52.019Z,0
2019-02-22T00:27:51.811Z,0
2019-02-22T00:28:52.020Z,0
2019-02-22T00:29:51.395Z,0
2019-02-22T00:30:51.853Z,0
2019-02-22T00:31:51.766Z,0
2019-02-22T00:32:51.754Z,0
2019-02-22T00:33:51.728Z,0
2019-02-22T00:34:51.906Z,0
2019-02-22T00:35:51.999Z,0
2019-02-22T00:36:51.858Z,0
2019-02-22T00:37:51.725Z,0
2019-02-22T00:38:52.049Z,0
2019-02-22T00:39:51.478Z,0
2019-02-22T00:40:51.720Z,0
2019-02-22T00:41:51.461Z,0
2019-02-22T00:42:52.850Z,0
2019-02-22T00:43:51.974Z,0
2019-02-22T00:44:51.697Z,0
2019-02-22T00:45:51.969Z,0
2019-02-22T00:46:51.922Z,0
2019-02-22T00:47:51.934Z,0
2019-02-22T00:48:51.923Z,0
2019-02-22T00:49:51.418Z,0
2019-02-22T00:50:51.406Z,0
2019-02-22T00:51:51.657Z,0
2019-02-22T00:52:51.658Z,0
2019-02-22T00:53:51.651Z,0
2019-02-22T00:54:51.898Z,0
2019-02-22T00:55:51.617Z,0
2019-02-22T00:56:51.622Z,0
2019-02-22T00:57:51.876Z,0
2019-02-22T00:58:51.618Z,0
2019-02-22T00:59:51.354Z,0
2019-02-22T01:00:51.606Z,0
2019-02-22T01:01:51.605Z,0
2019-02-22T01:02:51.346Z,0
2019-02-22T01:03:51.583Z,0
2019-02-22T01:04:51.651Z,0
2019-02-22T01:05:51.096Z,0
2019-02-22T01:06:51.586Z,0
2019-02-22T01:07:51.611Z,0
2019-02-22T01:08:51.299Z,0
2019-02-22T01:09:51.327Z,0
2019-02-22T01:10:51.813Z,0
2019-02-22T01:11:51.555Z,0
2019-02-22T01:12:51.531Z,0
2019-02-22T01:13:51.290Z,0
2019-02-22T01:14:51.550Z,0
2019-02-22T01:15:51.531Z,0
2019-02-22T01:16:51.538Z,0
2019-02-22T01:17:51.843Z,0
2019-02-22T01:18:51.522Z,0
2019-02-22T01:19:51.038Z,0
2019-02-22T01:21:01.640Z,0
2019-02-22T01:21:51.243Z,0
2019-02-22T01:22:51.483Z,0
2019-02-22T01:23:51.753Z,0
2019-02-22T01:24:51.237Z,0
2019-02-22T01:25:50.989Z,0
2019-02-22T01:26:51.499Z,0
2019-02-22T01:27:51.224Z,0
2019-02-22T01:28:51.736Z,0
2019-02-22T01:29:51.469Z,0
2019-02-22T01:30:51.231Z,0
2019-02-22T01:31:51.214Z,0
2019-02-22T01:32:51.598Z,0
2019-02-22T01:33:54.048Z,0
2019-02-22T01:34:51.530Z,0
2019-02-22T01:35:51.210Z,0
2019-02-22T01:36:51.726Z,0
2019-02-22T01:37:50.940Z,0
2019-02-22T01:38:51.174Z,0
2019-02-22T01:39:51.694Z,0
2019-02-22T01:40:51.170Z,0
2019-02-22T01:41:51.412Z,0
2019-02-22T01:42:51.638Z,0
2019-02-22T01:43:51.142Z,0
2019-02-22T01:44:51.168Z,0
2019-02-22T01:45:51.384Z,0
2019-02-22T01:46:51.610Z,0
2019-02-22T01:47:51.370Z,0
2019-02-22T01:48:51.350Z,0
2019-02-22T01:49:51.110Z,0
2019-02-22T01:50:50.977Z,0
2019-02-22T01:51:51.093Z,0
2019-02-22T01:52:50.857Z,0
2019-02-22T01:53:53.940Z,0
2019-02-22T01:54:51.077Z,0
2019-02-22T01:55:51.566Z,0
2019-02-22T01:56:51.078Z,0
2019-02-22T01:57:51.074Z,0
2019-02-22T01:58:55.757Z,0
2019-02-22T01:59:51.316Z,0
2019-02-22T02:00:51.310Z,0
2019-02-22T02:01:51.561Z,0
2019-02-22T02:02:51.539Z,0
2019-02-22T02:03:51.529Z,0
2019-02-22T02:04:51.278Z,0
2019-02-22T02:05:51.537Z,0
2019-02-22T02:06:51.544Z,0
2019-02-22T02:07:51.508Z,0
2019-02-22T02:08:51.269Z,0
2019-02-22T02:09:51.518Z,0
2019-02-22T02:11:01.247Z,0
2019-02-22T02:11:51.254Z,0
2019-02-22T02:12:51.288Z,0
2019-02-22T02:13:51.084Z,0
2019-02-22T02:14:51.480Z,0
2019-02-22T02:15:51.490Z,0
2019-02-22T02:16:51.481Z,0
2019-02-22T02:17:51.485Z,0
2019-02-22T02:18:51.219Z,0
2019-02-22T02:19:51.210Z,0
2019-02-22T02:20:51.707Z,0
2019-02-22T02:21:50.977Z,0
2019-02-22T02:22:51.202Z,0
2019-02-22T02:23:51.199Z,0
2019-02-22T02:24:51.543Z,0
2019-02-22T02:25:51.438Z,0
2019-02-22T02:26:50.956Z,0
2019-02-22T02:27:51.429Z,0
2019-02-22T02:28:51.756Z,0
2019-02-22T02:29:51.411Z,0
2019-02-22T02:30:51.422Z,0
2019-02-22T02:31:51.413Z,0
2019-02-22T02:32:51.392Z,0
2019-02-22T02:33:51.140Z,0
2019-02-22T02:34:51.149Z,0
2019-02-22T02:35:51.243Z,0
2019-02-22T02:36:51.150Z,0
2019-02-22T02:37:51.127Z,0
2019-02-22T02:38:51.463Z,0
2019-02-22T02:39:50.904Z,0
2019-02-22T02:40:51.367Z,0
2019-02-22T02:41:51.364Z,0
2019-02-22T02:42:51.347Z,0
2019-02-22T02:43:50.852Z,0
2019-02-22T02:44:51.108Z,0
2019-02-22T02:45:51.390Z,0
2019-02-22T02:46:51.108Z,0
2019-02-22T02:47:51.358Z,0
2019-02-22T02:48:51.089Z,0
2019-02-22T02:49:51.317Z,0
2019-02-22T02:50:51.336Z,0
2019-02-22T02:51:51.068Z,0
2019-02-22T02:52:51.071Z,0
2019-02-22T02:53:51.299Z,0
2019-02-22T02:54:50.796Z,0
2019-02-22T02:55:51.296Z,0
2019-02-22T02:56:53.297Z,0
2019-02-22T02:57:51.288Z,0
2019-02-22T02:58:51.309Z,0
2019-02-22T02:59:51.020Z,0
2019-02-22T03:00:51.410Z,0
2019-02-22T03:01:51.311Z,0
2019-02-22T03:02:51.266Z,0
2019-02-22T03:03:51.267Z,0
2019-02-22T03:04:51.044Z,0
2019-02-22T03:05:51.256Z,0
2019-02-22T03:06:51.266Z,0
2019-02-22T03:07:51.048Z,0
2019-02-22T03:08:51.242Z,0
2019-02-22T03:09:51.039Z,0
2019-02-22T03:10:51.235Z,0
2019-02-22T03:11:50.979Z,0
2019-02-22T03:12:51.233Z,0
2019-02-22T03:13:51.250Z,0
2019-02-22T03:14:51.200Z,0
2019-02-22T03:15:51.210Z,0
2019-02-22T03:16:51.212Z,0
2019-02-22T03:17:51.238Z,0
2019-02-22T03:18:51.218Z,0
2019-02-22T03:19:50.944Z,0
2019-02-22T03:20:51.204Z,0
2019-02-22T03:21:51.200Z,0
2019-02-22T03:22:50.976Z,0
2019-02-22T03:23:50.932Z,0
2019-02-22T03:24:53.578Z,0
2019-02-22T03:25:51.171Z,0
2019-02-22T03:26:50.936Z,0
2019-02-22T03:27:51.170Z,0
2019-02-22T03:28:50.920Z,0
2019-02-22T03:29:51.155Z,0
2019-02-22T03:30:50.941Z,0
2019-02-22T03:31:51.173Z,0
2019-02-22T03:32:51.162Z,0
2019-02-22T03:33:51.177Z,0
2019-02-22T03:34:50.876Z,0
2019-02-22T03:35:50.872Z,0
2019-02-22T03:36:51.126Z,0
2019-02-22T03:37:50.896Z,0
2019-02-22T03:38:51.109Z,0
2019-02-22T03:39:51.135Z,0
2019-02-22T03:40:50.876Z,0
2019-02-22T03:41:50.611Z,0
2019-02-22T03:42:51.089Z,0
2019-02-22T03:43:51.100Z,0
2019-02-22T03:44:50.838Z,0
2019-02-22T03:45:50.841Z,0
2019-02-22T03:46:50.823Z,0
2019-02-22T03:47:50.834Z,0
2019-02-22T03:48:51.176Z,0
2019-02-22T03:49:50.821Z,0
2019-02-22T03:50:51.072Z,0
2019-02-22T03:51:51.076Z,0
2019-02-22T03:52:50.826Z,0
2019-02-22T03:53:50.791Z,0
2019-02-22T03:54:51.034Z,0
2019-02-22T03:55:50.806Z,0
2019-02-22T03:56:50.797Z,0
2019-02-22T03:57:50.524Z,0
2019-02-22T03:58:50.785Z,0
2019-02-22T03:59:53.429Z,0
2019-02-22T04:00:50.767Z,0
2019-02-22T04:01:51.038Z,0
2019-02-22T04:02:50.784Z,0
2019-02-22T04:03:51.014Z,0
2019-02-22T04:04:50.756Z,0
2019-02-22T04:05:50.745Z,0
2019-02-22T04:06:50.745Z,0
2019-02-22T04:07:50.735Z,0
2019-02-22T04:08:50.986Z,0
2019-02-22T04:09:50.497Z,0
2019-02-22T04:10:50.728Z,0
2019-02-22T04:11:53.323Z,0
2019-02-22T04:12:50.702Z,0
2019-02-22T04:13:50.952Z,0
2019-02-22T04:14:50.705Z,0
2019-02-22T04:15:50.948Z,0
2019-02-22T04:16:50.693Z,0
2019-02-22T04:17:50.457Z,0
2019-02-22T04:18:50.185Z,0
2019-02-22T04:19:50.928Z,0
2019-02-22T04:20:50.676Z,0
2019-02-22T04:21:50.710Z,0
2019-02-22T04:22:51.472Z,0
2019-02-22T04:23:50.490Z,0
2019-02-22T04:24:50.694Z,0
2019-02-22T04:25:50.670Z,0
2019-02-22T04:26:50.712Z,0
2019-02-22T04:27:50.889Z,0
2019-02-22T04:28:51.189Z,0
2019-02-22T04:29:50.641Z,0
2019-02-22T04:30:50.649Z,0
2019-02-22T04:31:50.653Z,0
2019-02-22T04:32:50.386Z,0
2019-02-22T04:33:50.117Z,0
2019-02-22T04:34:50.632Z,0
2019-02-22T04:35:50.347Z,0
2019-02-22T04:36:50.865Z,0
2019-02-22T04:37:50.606Z,0
2019-02-22T04:38:50.580Z,0
2019-02-22T04:39:50.843Z,0
2019-02-22T04:40:50.336Z,0
2019-02-22T04:42:02.261Z,0
2019-02-22T04:42:50.303Z,0
2019-02-22T04:43:50.078Z,0
2019-02-22T04:44:50.558Z,0
2019-02-22T04:45:50.606Z,0
2019-02-22T04:46:50.553Z,0
2019-02-22T04:47:50.529Z,0
2019-02-22T04:48:50.537Z,0
2019-02-22T04:49:50.533Z,0
2019-02-22T04:50:50.763Z,0
2019-02-22T04:51:50.040Z,0
2019-02-22T04:52:50.768Z,0
2019-02-22T04:53:50.283Z,0
2019-02-22T04:54:50.501Z,0
2019-02-22T04:55:50.501Z,0
2019-02-22T04:56:50.767Z,0
2019-02-22T04:57:50.718Z,0
2019-02-22T04:58:50.719Z,0
2019-02-22T04:59:50.475Z,0
2019-02-22T05:00:50.736Z,0
2019-02-22T05:01:50.488Z,0
2019-02-22T05:02:50.467Z,0
2019-02-22T05:03:50.470Z,0
2019-02-22T05:04:50.681Z,0
2019-02-22T05:05:50.180Z,0
2019-02-22T05:06:50.691Z,0
2019-02-22T05:07:50.454Z,0
2019-02-22T05:08:50.193Z,0
2019-02-22T05:09:50.471Z,0
2019-02-22T05:10:50.457Z,0
2019-02-22T05:11:50.433Z,0
2019-02-22T05:12:50.407Z,0
2019-02-22T05:13:50.656Z,0
2019-02-22T05:14:49.953Z,0
2019-02-22T05:15:50.660Z,0
2019-02-22T05:16:49.896Z,0
2019-02-22T05:17:50.669Z,0
2019-02-22T05:18:50.638Z,0
2019-02-22T05:19:50.622Z,0
2019-02-22T05:20:50.378Z,0
2019-02-22T05:21:50.365Z,0
2019-02-22T05:22:50.616Z,0
2019-02-22T05:23:50.349Z,0
2019-02-22T05:24:50.616Z,0
2019-02-22T05:25:50.614Z,0
2019-02-22T05:26:50.351Z,0
2019-02-22T05:27:49.835Z,0
2019-02-22T05:28:50.363Z,0
2019-02-22T05:29:50.582Z,0
2019-02-22T05:30:50.359Z,0
2019-02-22T05:31:50.329Z,0
2019-02-22T05:32:50.300Z,0
2019-02-22T05:33:49.814Z,0
2019-02-22T05:34:50.313Z,0
2019-02-22T05:35:50.286Z,0
2019-02-22T05:36:51.548Z,0
2019-02-22T05:37:50.522Z,0
2019-02-22T05:38:50.023Z,0
2019-02-22T05:39:50.511Z,0
2019-02-22T05:40:50.254Z,0
2019-02-22T05:41:50.024Z,0
2019-02-22T05:42:49.748Z,0
2019-02-22T05:43:50.259Z,0
2019-02-22T05:44:50.485Z,0
2019-02-22T05:45:50.503Z,0
2019-02-22T05:47:02.298Z,0
2019-02-22T05:47:50.520Z,0
2019-02-22T05:48:50.211Z,0
2019-02-22T05:49:50.205Z,0
2019-02-22T05:50:50.205Z,0
2019-02-22T05:51:50.453Z,0
2019-02-22T05:52:50.515Z,0
2019-02-22T05:53:50.553Z,0
2019-02-22T05:54:50.443Z,0
2019-02-22T05:55:51.196Z,0
2019-02-22T05:56:50.437Z,0
2019-02-22T05:57:50.505Z,0
2019-02-22T05:58:50.448Z,4
2019-02-22T05:59:50.408Z,4
2019-02-22T06:00:49.911Z,0
2019-02-22T06:01:50.554Z,4
2019-02-22T06:02:50.013Z,4
2019-02-22T06:03:49.914Z,4
2019-02-22T06:04:50.239Z,8
2019-02-22T06:05:50.423Z,4
2019-02-22T06:06:50.164Z,4
2019-02-22T06:07:50.493Z,8
2019-02-22T06:08:50.117Z,12
2019-02-22T06:09:50.669Z,8
2019-02-22T06:10:50.090Z,12
2019-02-22T06:11:49.873Z,16
2019-02-22T06:12:50.087Z,16
2019-02-22T06:13:49.621Z,24
2019-02-22T06:14:50.454Z,20
2019-02-22T06:15:50.442Z,20
2019-02-22T06:16:49.954Z,20
2019-02-22T06:17:50.428Z,28
2019-02-22T06:18:49.807Z,28
2019-02-22T06:19:49.796Z,36
2019-02-22T06:20:49.581Z,40
2019-02-22T06:21:50.029Z,40
2019-02-22T06:22:50.038Z,40
2019-02-22T06:23:50.035Z,40
2019-02-22T06:24:50.029Z,44
2019-02-22T06:25:50.038Z,44
2019-02-22T06:26:50.553Z,44
2019-02-22T06:27:49.993Z,52
2019-02-22T06:28:49.987Z,52
2019-02-22T06:29:52.268Z,60
2019-02-22T06:30:49.745Z,68
2019-02-22T06:31:49.982Z,68
2019-02-22T06:32:50.409Z,68
2019-02-22T06:33:49.754Z,68
2019-02-22T06:34:49.987Z,72
2019-02-22T06:35:49.961Z,84
2019-02-22T06:37:00.661Z,104
2019-02-22T06:37:50.553Z,108
2019-02-22T06:38:51.562Z,116
2019-02-22T06:39:50.551Z,132
2019-02-22T06:40:52.866Z,152
2019-02-22T06:41:50.024Z,152
2019-02-22T06:42:52.834Z,176
2019-02-22T06:43:50.017Z,208
2019-02-22T06:44:49.915Z,248
2019-02-22T06:45:49.713Z,304
2019-02-22T06:46:49.674Z,332
2019-02-22T06:47:50.494Z,336
2019-02-22T06:48:49.899Z,348
2019-02-22T06:49:51.862Z,364
2019-02-22T06:50:49.668Z,364
2019-02-22T06:51:49.694Z,376
2019-02-22T06:52:49.668Z,388
2019-02-22T06:53:49.859Z,436
2019-02-22T06:54:49.635Z,472
2019-02-22T06:55:49.381Z,480
2019-02-22T06:56:49.862Z,472
2019-02-22T06:57:49.830Z,456
2019-02-22T06:58:49.846Z,464
2019-02-22T06:59:49.851Z,460
2019-02-22T07:00:49.838Z,464
2019-02-22T07:01:52.436Z,448
2019-02-22T07:02:50.051Z,424
2019-02-22T07:03:50.055Z,432
2019-02-22T07:04:50.142Z,440
2019-02-22T07:05:50.120Z,440
2019-02-22T07:06:49.579Z,428
2019-02-22T07:07:49.310Z,396
2019-02-22T07:08:50.104Z,356
2019-02-22T07:09:49.540Z,308
2019-02-22T07:10:49.787Z,284
2019-02-22T07:11:49.792Z,276
2019-02-22T07:13:01.177Z,300
2019-02-22T07:13:49.772Z,316
2019-02-22T07:14:49.999Z,336
2019-02-22T07:15:49.497Z,340
2019-02-22T07:16:50.033Z,396
2019-02-22T07:17:49.998Z,432
2019-02-22T07:18:52.276Z,464
2019-02-22T07:19:50.042Z,496
2019-02-22T07:20:49.834Z,508
2019-02-22T07:21:59.849Z,496
2019-02-22T07:22:49.712Z,476
2019-02-22T07:23:49.995Z,444
2019-02-22T07:24:50.015Z,400
2019-02-22T07:25:49.947Z,428
2019-02-22T07:26:49.956Z,492
2019-02-22T07:27:49.928Z,556
2019-02-22T07:28:49.919Z,612
2019-02-22T07:29:49.417Z,568
2019-02-22T07:30:49.961Z,540
2019-02-22T07:31:49.705Z,528
2019-02-22T07:32:50.562Z,516
2019-02-22T07:33:49.718Z,528
2019-02-22T07:34:49.397Z,548
2019-02-22T07:35:49.664Z,548
2019-02-22T07:36:49.675Z,568
2019-02-22T07:37:49.888Z,652
2019-02-22T07:38:49.913Z,664
2019-02-22T07:39:49.404Z,676
2019-02-22T07:40:49.727Z,668
2019-02-22T07:41:49.643Z,680
2019-02-22T07:42:49.660Z,680
2019-02-22T07:43:49.377Z,628
2019-02-22T07:44:49.722Z,616
2019-02-22T07:45:49.350Z,672
2019-02-22T07:46:49.629Z,740
2019-02-22T07:47:49.598Z,828
2019-02-22T07:48:49.332Z,880
2019-02-22T07:49:49.594Z,872
2019-02-22T07:51:01.031Z,828
2019-02-22T07:51:49.310Z,812
2019-02-22T07:52:52.816Z,716
2019-02-22T07:53:49.808Z,744
2019-02-22T07:54:49.586Z,844
2019-02-22T07:55:49.547Z,948
2019-02-22T07:56:49.582Z,1036
2019-02-22T07:57:49.480Z,1080
2019-02-22T07:58:49.031Z,1056
2019-02-22T07:59:49.557Z,992
2019-02-22T08:00:49.789Z,1008
2019-02-22T08:01:55.055Z,992
2019-02-22T08:02:49.831Z,968
2019-02-22T08:03:49.558Z,1048
2019-02-22T08:04:49.545Z,1188
2019-02-22T08:05:49.568Z,1576
2019-02-22T08:06:49.571Z,1816
2019-02-22T08:07:49.732Z,1936
2019-02-22T08:08:52.659Z,2032
2019-02-22T08:09:49.490Z,2164
2019-02-22T08:10:49.938Z,2340
2019-02-22T08:11:51.952Z,2428
2019-02-22T08:12:49.454Z,2524
2019-02-22T08:13:49.446Z,2460
2019-02-22T08:14:49.466Z,2580
2019-02-22T08:15:49.224Z,2608
2019-02-22T08:16:49.715Z,2664
2019-02-22T08:17:49.713Z,2772
2019-02-22T08:19:00.582Z,2928
2019-02-22T08:19:49.700Z,3044
2019-02-22T08:20:49.163Z,3056
2019-02-22T08:21:49.390Z,2808
2019-02-22T08:22:49.659Z,2620
2019-02-22T08:23:49.447Z,2472
2019-02-22T08:24:49.639Z,2436
2019-02-22T08:25:49.373Z,2520
2019-02-22T08:26:49.130Z,2720
2019-02-22T08:28:00.876Z,3160
2019-02-22T08:28:49.624Z,3616
2019-02-22T08:29:49.672Z,3972
2019-02-22T08:30:49.640Z,4308
2019-02-22T08:31:49.379Z,4596
2019-02-22T08:32:49.634Z,4732
2019-02-22T08:33:48.845Z,4876
2019-02-22T08:34:50.505Z,4960
2019-02-22T08:35:49.422Z,5216
2019-02-22T08:36:49.332Z,5432
2019-02-22T08:37:49.586Z,5648
2019-02-22T08:38:49.630Z,5776
2019-02-22T08:40:02.251Z,5756
2019-02-22T08:40:49.538Z,5780
2019-02-22T08:41:49.625Z,5728
2019-02-22T08:42:49.553Z,5688
2019-02-22T08:43:49.300Z,5684
2019-02-22T08:44:49.348Z,5716
2019-02-22T08:45:49.553Z,5608
2019-02-22T08:46:49.411Z,5588
2019-02-22T08:47:49.553Z,5768
2019-02-22T08:48:49.309Z,5344
2019-02-22T08:49:49.309Z,5212
2019-02-22T08:50:49.316Z,5208
2019-02-22T08:51:49.412Z,5268
2019-02-22T08:52:49.462Z,5236
2019-02-22T08:53:49.263Z,5132
2019-02-22T08:54:54.312Z,5076
2019-02-22T08:55:50.314Z,5028
2019-02-22T08:56:49.097Z,5052
2019-02-22T08:57:49.263Z,5236
2019-02-22T08:58:49.267Z,5740
2019-02-22T08:59:49.500Z,6320
2019-02-22T09:00:49.533Z,6512
2019-02-22T09:01:49.548Z,6376
2019-02-22T09:02:49.003Z,6304
2019-02-22T09:03:58.024Z,6252
2019-02-22T09:04:49.183Z,6192
2019-02-22T09:05:49.465Z,5848
2019-02-22T09:06:52.151Z,5700
2019-02-22T09:07:49.490Z,5504
2019-02-22T09:08:49.503Z,5232
2019-02-22T09:09:49.499Z,5192
2019-02-22T09:11:00.015Z,5104
2019-02-22T09:11:49.462Z,4872
2019-02-22T09:12:49.529Z,4572
2019-02-22T09:13:51.100Z,4808
2019-02-22T09:14:49.443Z,5092
2019-02-22T09:15:49.481Z,5064
2019-02-22T09:16:49.436Z,4808
2019-02-22T09:17:48.946Z,4404
2019-02-22T09:18:49.193Z,5072
2019-02-22T09:19:49.213Z,5388
2019-02-22T09:20:49.425Z,5376
2019-02-22T09:21:49.182Z,5296
2019-02-22T09:22:49.179Z,5036
2019-02-22T09:23:49.245Z,4660
2019-02-22T09:24:49.490Z,4168
2019-02-22T09:25:49.421Z,3692
2019-02-22T09:26:49.401Z,3672
2019-02-22T09:27:49.599Z,3844
2019-02-22T09:28:49.469Z,3892
2019-02-22T09:30:00.562Z,3976
2019-02-22T09:30:49.137Z,4100
2019-02-22T09:31:49.169Z,4524
2019-02-22T09:32:49.410Z,4908
2019-02-22T09:33:48.879Z,5320
2019-02-22T09:34:50.972Z,5520
2019-02-22T09:35:49.475Z,5448
2019-02-22T09:36:49.457Z,5396
2019-02-22T09:37:49.132Z,5456
2019-02-22T09:38:48.870Z,5684
2019-02-22T09:39:49.111Z,5508
2019-02-22T09:40:49.364Z,5300
2019-02-22T09:41:49.686Z,5092
2019-02-22T09:42:48.854Z,5664
2019-02-22T09:43:59.913Z,5516
2019-02-22T09:44:49.354Z,5404
2019-02-22T09:45:49.335Z,5204
2019-02-22T09:46:49.369Z,5204
2019-02-22T09:47:49.087Z,5316
2019-02-22T09:48:49.473Z,5520
2019-02-22T09:49:49.388Z,5712
2019-02-22T09:50:49.076Z,5688
2019-02-22T09:51:49.077Z,5580
2019-02-22T09:52:49.076Z,5640
2019-02-22T09:53:49.105Z,5656
2019-02-22T09:54:49.410Z,5996
2019-02-22T09:55:49.057Z,6272
2019-02-22T09:56:50.889Z,6436
2019-02-22T09:57:49.053Z,6692
2019-02-22T09:58:49.139Z,6924
2019-02-22T09:59:49.278Z,7004
2019-02-22T10:00:49.748Z,7016
2019-02-22T10:01:49.382Z,7100
2019-02-22T10:02:51.869Z,7116
2019-02-22T10:03:48.783Z,7092
2019-02-22T10:04:59.638Z,7136
2019-02-22T10:05:49.039Z,7012
2019-02-22T10:06:49.028Z,6460
2019-02-22T10:07:48.785Z,5824
2019-02-22T10:08:49.025Z,5660
2019-02-22T10:09:49.287Z,5524
2019-02-22T10:10:49.071Z,5520
2019-02-22T10:11:49.250Z,5608
2019-02-22T10:12:49.194Z,5636
2019-02-22T10:13:48.754Z,5456
2019-02-22T10:14:49.489Z,5468
2019-02-22T10:15:49.456Z,5780
2019-02-22T10:16:49.022Z,5952
2019-02-22T10:17:49.009Z,6152
2019-02-22T10:18:49.434Z,6504
2019-02-22T10:19:49.149Z,6620
2019-02-22T10:20:48.729Z,7116
2019-02-22T10:21:48.994Z,7068
2019-02-22T10:22:48.989Z,7004
2019-02-22T10:23:48.746Z,7484
2019-02-22T10:24:49.065Z,7308
2019-02-22T10:25:48.988Z,6864
2019-02-22T10:26:48.734Z,6088
2019-02-22T10:27:49.016Z,6108
2019-02-22T10:28:48.743Z,5960
2019-02-22T10:29:48.960Z,6020
2019-02-22T10:30:49.437Z,6124
2019-02-22T10:31:49.016Z,6396
2019-02-22T10:32:49.469Z,6788
2019-02-22T10:33:49.489Z,7292
2019-02-22T10:34:49.465Z,7336
2019-02-22T10:35:49.443Z,7356
2019-02-22T10:36:52.686Z,7508
2019-02-22T10:37:48.939Z,7668
2019-02-22T10:38:48.941Z,8324
2019-02-22T10:39:48.983Z,7560
2019-02-22T10:40:48.943Z,7272
2019-02-22T10:41:49.174Z,6832
2019-02-22T10:42:48.999Z,6968
2019-02-22T10:43:49.209Z,7892
2019-02-22T10:44:49.175Z,7092
2019-02-22T10:45:49.466Z,7244
2019-02-22T10:46:48.680Z,7572
2019-02-22T10:47:48.934Z,8388
2019-02-22T10:48:48.916Z,9840
2019-02-22T10:49:49.509Z,9736
2019-02-22T10:50:48.914Z,10004
2019-02-22T10:51:49.025Z,8868
2019-02-22T10:52:48.990Z,8760
2019-02-22T10:53:48.658Z,9248
2019-02-22T10:54:48.644Z,8688
2019-02-22T10:55:49.159Z,6800
2019-02-22T10:56:49.143Z,6352
2019-02-22T10:57:48.656Z,6192
2019-02-22T10:58:48.889Z,6052
2019-02-22T10:59:48.659Z,5984
2019-02-22T11:00:49.487Z,6116
2019-02-22T11:01:48.886Z,6372
2019-02-22T11:02:48.653Z,6420
2019-02-22T11:03:49.136Z,6380
2019-02-22T11:04:48.385Z,6312
2019-02-22T11:05:48.867Z,6180
2019-02-22T11:06:48.625Z,6120
2019-02-22T11:07:48.869Z,5896
2019-02-22T11:08:48.873Z,5504
2019-02-22T11:09:49.074Z,5252
2019-02-22T11:10:49.268Z,5236
2019-02-22T11:11:49.168Z,5336
2019-02-22T11:12:49.092Z,5524
2019-02-22T11:13:48.349Z,5908
2019-02-22T11:14:48.602Z,6168
2019-02-22T11:15:48.840Z,6384
2019-02-22T11:16:49.141Z,6420
2019-02-22T11:17:49.134Z,6596
2019-02-22T11:18:49.461Z,6740
2019-02-22T11:19:49.413Z,6852
2019-02-22T11:20:48.836Z,6956
2019-02-22T11:21:48.588Z,7036
2019-02-22T11:22:48.592Z,7080
2019-02-22T11:23:48.564Z,7160
2019-02-22T11:24:49.068Z,7108
2019-02-22T11:25:49.068Z,6860
2019-02-22T11:26:49.070Z,7028
2019-02-22T11:27:48.815Z,6840
2019-02-22T11:28:48.832Z,6500
2019-02-22T11:29:51.796Z,6384
2019-02-22T11:30:48.560Z,6296
2019-02-22T11:31:49.426Z,6224
2019-02-22T11:32:48.303Z,6084
2019-02-22T11:33:49.050Z,6120
2019-02-22T11:34:48.790Z,6140
2019-02-22T11:35:49.037Z,6504
2019-02-22T11:36:49.045Z,6788
2019-02-22T11:37:48.543Z,6940
2019-02-22T11:38:48.540Z,7272
2019-02-22T11:39:49.107Z,7648
2019-02-22T11:40:48.562Z,7940
2019-02-22T11:41:48.548Z,7880
2019-02-22T11:42:48.774Z,7768
2019-02-22T11:43:48.788Z,7664
2019-02-22T11:44:48.776Z,8012
2019-02-22T11:45:49.937Z,7828
2019-02-22T11:46:48.793Z,7756
2019-02-22T11:47:48.543Z,7708
2019-02-22T11:48:48.777Z,7744
2019-02-22T11:49:48.775Z,8004
2019-02-22T11:50:48.994Z,8084
2019-02-22T11:51:48.761Z,8224
2019-02-22T11:52:48.762Z,8028
2019-02-22T11:53:49.027Z,8468
2019-02-22T11:54:48.785Z,8044
2019-02-22T11:55:48.760Z,8408
2019-02-22T11:56:48.992Z,8148
2019-02-22T11:57:48.760Z,7596
2019-02-22T11:58:48.504Z,8048
2019-02-22T11:59:48.514Z,8564
2019-02-22T12:00:48.736Z,8108
2019-02-22T12:01:48.737Z,8176
2019-02-22T12:02:49.966Z,8596
2019-02-22T12:03:48.497Z,8660
2019-02-22T12:04:48.723Z,9736
2019-02-22T12:05:48.723Z,9448
2019-02-22T12:06:48.974Z,9184
2019-02-22T12:07:48.726Z,8812
2019-02-22T12:08:48.731Z,8396
2019-02-22T12:09:48.728Z,8236
2019-02-22T12:10:48.966Z,7596
2019-02-22T12:11:48.989Z,6672
2019-02-22T12:12:48.241Z,5492
2019-02-22T12:13:48.469Z,5812
2019-02-22T12:14:58.235Z,5596
2019-02-22T12:15:48.710Z,5716
2019-02-22T12:16:48.728Z,5752
2019-02-22T12:17:48.469Z,5808
2019-02-22T12:18:48.726Z,5800
2019-02-22T12:19:48.712Z,5688
2019-02-22T12:20:48.969Z,5128
2019-02-22T12:21:48.970Z,4388
2019-02-22T12:22:48.724Z,4104
2019-02-22T12:23:48.457Z,4040
2019-02-22T12:24:48.950Z,4092
2019-02-22T12:25:49.421Z,4396
2019-02-22T12:26:48.964Z,4304
2019-02-22T12:27:48.946Z,4560
2019-02-22T12:28:48.709Z,4700
2019-02-22T12:29:48.464Z,4644
2019-02-22T12:30:48.479Z,4572
2019-02-22T12:31:49.010Z,4508
2019-02-22T12:32:48.696Z,4432
2019-02-22T12:33:48.922Z,4416
2019-02-22T12:34:48.721Z,4408
2019-02-22T12:35:48.950Z,4380
2019-02-22T12:36:48.214Z,4320
2019-02-22T12:37:49.013Z,4292
2019-02-22T12:38:48.436Z,4212
2019-02-22T12:39:48.658Z,4124
2019-02-22T12:40:48.676Z,4188
2019-02-22T12:41:48.205Z,4196
2019-02-22T12:42:48.751Z,4204
2019-02-22T12:43:48.965Z,4220
2019-02-22T12:44:48.916Z,4228
2019-02-22T12:45:48.162Z,4212
2019-02-22T12:46:48.659Z,4128
2019-02-22T12:47:48.926Z,3984
2019-02-22T12:48:48.662Z,3848
2019-02-22T12:49:48.391Z,3712
2019-02-22T12:50:48.658Z,3572
2019-02-22T12:51:48.900Z,3416
2019-02-22T12:52:48.660Z,3288
2019-02-22T12:53:48.941Z,3228
2019-02-22T12:54:48.657Z,3196
2019-02-22T12:55:48.672Z,3184
2019-02-22T12:57:04.170Z,3196
2019-02-22T12:57:48.474Z,3228
2019-02-22T12:58:48.867Z,3304
2019-02-22T12:59:48.626Z,3364
2019-02-22T13:00:48.382Z,3428
2019-02-22T13:01:48.631Z,3524
2019-02-22T13:02:48.609Z,3612
2019-02-22T13:03:48.170Z,3680
2019-02-22T13:04:48.615Z,3720
2019-02-22T13:05:48.843Z,3788
2019-02-22T13:06:48.644Z,3852
2019-02-22T13:07:48.850Z,3864
2019-02-22T13:08:48.330Z,3836
2019-02-22T13:09:48.830Z,3812
2019-02-22T13:10:48.828Z,3772
2019-02-22T13:11:48.860Z,3720
2019-02-22T13:12:48.585Z,3652
2019-02-22T13:13:48.578Z,3588
2019-02-22T13:14:48.571Z,3540
2019-02-22T13:15:48.330Z,3584
2019-02-22T13:16:48.825Z,3644
2019-02-22T13:17:48.829Z,3728
2019-02-22T13:18:48.584Z,3832
2019-02-22T13:19:48.827Z,3956
2019-02-22T13:20:48.886Z,4040
2019-02-22T13:21:48.598Z,4128
2019-02-22T13:22:48.563Z,4308
2019-02-22T13:23:48.797Z,4592
2019-02-22T13:24:48.570Z,4836
2019-02-22T13:25:48.584Z,5052
2019-02-22T13:26:48.807Z,5216
2019-02-22T13:27:48.533Z,5324
2019-02-22T13:28:48.540Z,5404
2019-02-22T13:29:48.217Z,5468
2019-02-22T13:30:48.543Z,5528
2019-02-22T13:31:48.533Z,5596
2019-02-22T13:32:48.781Z,5660
2019-02-22T13:33:48.521Z,5676
2019-02-22T13:34:48.832Z,5660
2019-02-22T13:35:48.320Z,5612
2019-02-22T13:36:48.557Z,5564
2019-02-22T13:37:48.035Z,5528
2019-02-22T13:38:48.540Z,5504
2019-02-22T13:39:48.511Z,5512
2019-02-22T13:40:52.146Z,5520
2019-02-22T13:41:48.257Z,5556
2019-02-22T13:42:48.781Z,5596
2019-02-22T13:43:48.490Z,5632
2019-02-22T13:44:48.503Z,5664
2019-02-22T13:45:48.500Z,5684
2019-02-22T13:46:48.136Z,5716
2019-02-22T13:47:48.257Z,5780
2019-02-22T13:48:48.883Z,5852
2019-02-22T13:49:48.501Z,5900
2019-02-22T13:50:48.487Z,5912
2019-02-22T13:51:48.235Z,5940
2019-02-22T13:52:48.619Z,5988
2019-02-22T13:53:48.466Z,6012
2019-02-22T13:54:51.635Z,6024
2019-02-22T13:55:48.235Z,6016
2019-02-22T13:56:48.738Z,6020
2019-02-22T13:57:48.465Z,6056
2019-02-22T13:58:48.720Z,6068
2019-02-22T13:59:50.595Z,5996